Time;durP1;ratioP1;P1;durP2;ratioP2;P2;SDS_P1;SDS_P2;PMS_P1;PMS_P2;Temp;Humidity;BMP_temperature;BMP_pressure;BME280_temperature;BME280_humidity;BME280_pressure;Samples;Min_cycle;Max_cycle;Signal;HPM_P1;HPM_P2
2020/12/24 00:01:49;;;;;;;1.43;0.60;;;20.80;55.80;;;;;;5037971;28;20470;-67
2020/12/24 00:04:15;;;;;;;0.40;0.40;;;20.80;55.80;;;;;;5050943;28;20482;-67
2020/12/24 00:06:41;;;;;;;0.83;0.83;;;20.70;55.70;;;;;;5050824;28;20477;-67
2020/12/24 00:09:07;;;;;;;0.90;0.57;;;20.70;55.70;;;;;;5050532;28;20482;-67
2020/12/24 00:11:33;;;;;;;0.53;0.53;;;20.70;55.70;;;;;;5044061;28;20497;-67
2020/12/24 00:13:59;;;;;;;0.70;0.60;;;20.70;55.70;;;;;;5046081;28;20841;-68
2020/12/24 00:16:26;;;;;;;0.63;0.63;;;20.70;55.80;;;;;;5048738;28;20478;-67
2020/12/24 00:18:53;;;;;;;1.10;0.70;;;20.70;55.70;;;;;;5039881;28;20475;-67
2020/12/24 00:21:19;;;;;;;0.60;0.60;;;20.70;55.70;;;;;;5037467;28;20505;-66
2020/12/24 00:23:45;;;;;;;0.60;0.43;;;20.70;55.70;;;;;;5038124;28;20554;-67
2020/12/24 00:26:11;;;;;;;0.80;0.60;;;20.70;55.70;;;;;;5049556;28;20498;-67
2020/12/24 00:28:37;;;;;;;0.70;0.70;;;20.70;55.70;;;;;;5037704;28;20998;-66
2020/12/24 00:31:03;;;;;;;0.60;0.60;;;20.60;55.70;;;;;;5035242;28;20833;-67
2020/12/24 00:33:30;;;;;;;0.50;0.47;;;20.60;55.70;;;;;;5028137;28;20588;-67
2020/12/24 00:35:56;;;;;;;1.37;0.50;;;20.60;55.70;;;;;;5047678;28;20477;-66
2020/12/24 00:38:22;;;;;;;2.40;0.50;;;20.60;55.70;;;;;;5046756;28;20488;-67
2020/12/24 00:40:49;;;;;;;0.70;0.70;;;20.60;55.70;;;;;;5047749;28;20481;-66
2020/12/24 00:43:15;;;;;;;1.73;0.60;;;20.70;55.70;;;;;;5047823;28;21204;-66
2020/12/24 00:45:41;;;;;;;0.60;0.50;;;20.70;55.70;;;;;;5047338;28;20494;-67
2020/12/24 00:48:07;;;;;;;0.57;0.57;;;20.70;55.70;;;;;;5050793;28;20489;-67
2020/12/24 00:50:34;;;;;;;1.03;0.70;;;20.70;55.70;;;;;;5044073;28;20489;-68
2020/12/24 00:53:00;;;;;;;1.63;0.60;;;20.70;55.70;;;;;;5017929;28;20474;-67
2020/12/24 00:55:26;;;;;;;2.00;0.80;;;20.60;55.70;;;;;;5033327;28;20493;-67
2020/12/24 00:57:52;;;;;;;1.90;0.77;;;20.70;55.70;;;;;;5038540;28;20477;-68
2020/12/24 01:00:18;;;;;;;0.90;0.67;;;20.60;55.70;;;;;;5039112;28;20524;-67
2020/12/24 01:02:45;;;;;;;1.50;0.60;;;20.70;55.70;;;;;;5037975;28;20485;-67
2020/12/24 01:05:11;;;;;;;0.70;0.70;;;20.70;55.70;;;;;;5043330;28;20482;-66
2020/12/24 01:07:38;;;;;;;0.60;0.60;;;20.70;55.70;;;;;;5038809;28;20537;-66
2020/12/24 01:10:05;;;;;;;0.60;0.50;;;20.70;55.80;;;;;;5035211;28;20470;-68
2020/12/24 01:12:31;;;;;;;0.67;0.67;;;20.70;55.70;;;;;;5020692;28;20474;-66
2020/12/24 01:14:57;;;;;;;0.70;0.70;;;20.70;55.80;;;;;;5046181;28;20501;-68
2020/12/24 01:17:24;;;;;;;0.70;0.70;;;20.70;55.70;;;;;;5052608;28;20543;-68
2020/12/24 01:19:50;;;;;;;0.73;0.73;;;20.70;55.70;;;;;;5061866;28;20485;-68
2020/12/24 01:22:16;;;;;;;0.50;0.50;;;20.70;55.70;;;;;;5059762;28;20489;-67
2020/12/24 01:24:43;;;;;;;0.50;0.50;;;20.60;55.70;;;;;;5070518;28;20893;-68
2020/12/24 01:27:09;;;;;;;1.03;0.70;;;20.60;55.70;;;;;;5040499;28;20511;-68
2020/12/24 01:29:35;;;;;;;1.27;0.60;;;20.60;55.70;;;;;;5049886;28;20475;-68
2020/12/24 01:32:02;;;;;;;0.50;0.50;;;20.60;55.70;;;;;;5068064;28;20477;-67
2020/12/24 01:34:28;;;;;;;1.00;0.77;;;20.60;55.70;;;;;;5061530;28;20998;-67
2020/12/24 01:36:55;;;;;;;1.00;0.60;;;20.60;55.70;;;;;;5072261;28;20871;-67
2020/12/24 01:39:21;;;;;;;0.50;0.50;;;20.60;55.70;;;;;;5064932;28;20493;-68
2020/12/24 01:41:48;;;;;;;1.57;0.60;;;20.60;55.70;;;;;;5070329;28;20480;-67
2020/12/24 01:44:14;;;;;;;0.47;0.47;;;20.60;55.70;;;;;;5072066;28;20473;-67
2020/12/24 01:46:40;;;;;;;0.70;0.67;;;20.60;55.70;;;;;;5071973;28;20466;-67
2020/12/24 01:49:06;;;;;;;0.90;0.60;;;20.60;55.70;;;;;;5071606;28;20533;-68
2020/12/24 01:51:33;;;;;;;0.50;0.50;;;20.60;55.70;;;;;;5071601;28;20477;-67
2020/12/24 01:54:00;;;;;;;0.60;0.60;;;20.60;55.70;;;;;;5061332;28;20557;-68
2020/12/24 01:56:26;;;;;;;0.60;0.60;;;20.60;56.40;;;;;;5073449;28;20481;-68
2020/12/24 01:58:53;;;;;;;1.07;0.67;;;20.60;55.70;;;;;;5070346;28;20477;-68
2020/12/24 02:01:20;;;;;;;0.70;0.70;;;20.60;55.60;;;;;;5058725;28;20465;-68
2020/12/24 02:03:46;;;;;;;0.60;0.53;;;20.60;55.70;;;;;;5063916;28;20501;-68
2020/12/24 02:06:12;;;;;;;1.83;0.60;;;20.50;55.60;;;;;;5061354;28;20556;-67
2020/12/24 02:08:38;;;;;;;0.47;0.47;;;20.60;55.70;;;;;;5072416;28;20468;-67
2020/12/24 02:11:05;;;;;;;0.50;0.50;;;20.60;56.40;;;;;;5065502;28;21020;-67
2020/12/24 02:13:31;;;;;;;0.47;0.47;;;20.60;55.70;;;;;;5056221;28;20490;-68
2020/12/24 02:15:58;;;;;;;0.70;0.70;;;20.60;55.70;;;;;;5070570;28;20488;-67
2020/12/24 02:18:25;;;;;;;0.93;0.60;;;20.60;55.70;;;;;;5071921;28;20468;-67
2020/12/24 02:20:52;;;;;;;0.50;0.50;;;20.60;55.70;;;;;;5076517;28;20480;-67
2020/12/24 02:23:18;;;;;;;0.73;0.60;;;20.60;55.70;;;;;;5078349;28;20469;-67
2020/12/24 02:25:44;;;;;;;0.80;0.50;;;20.60;55.70;;;;;;5072756;28;20837;-68
2020/12/24 02:28:10;;;;;;;0.50;0.50;;;20.60;55.70;;;;;;5052223;28;20485;-67
2020/12/24 02:30:36;;;;;;;1.03;0.70;;;20.60;55.70;;;;;;5086852;28;20892;-68
2020/12/24 02:33:03;;;;;;;0.80;0.60;;;20.60;55.60;;;;;;5066582;28;20539;-67
2020/12/24 02:35:29;;;;;;;0.80;0.50;;;20.60;55.00;;;;;;5045703;28;20482;-67
2020/12/24 02:37:56;;;;;;;0.50;0.43;;;20.60;55.00;;;;;;5070867;28;20535;-67
2020/12/24 02:40:22;;;;;;;3.37;0.63;;;20.60;55.70;;;;;;5069764;28;20883;-67
2020/12/24 02:42:48;;;;;;;0.50;0.50;;;20.50;55.10;;;;;;5074789;28;21284;-67
2020/12/24 02:45:14;;;;;;;0.70;0.70;;;20.50;55.50;;;;;;5078550;28;20476;-67
2020/12/24 02:47:40;;;;;;;0.40;0.40;;;20.50;55.10;;;;;;5069651;28;20484;-68
2020/12/24 02:50:08;;;;;;;0.60;0.60;;;20.50;55.60;;;;;;5068536;28;20473;-67
2020/12/24 02:52:34;;;;;;;0.80;0.50;;;20.50;55.60;;;;;;5067625;28;20479;-67
2020/12/24 02:55:02;;;;;;;1.13;0.50;;;20.50;56.30;;;;;;5080224;28;20513;-67
2020/12/24 02:57:28;;;;;;;0.50;0.50;;;20.50;55.60;;;;;;5068313;28;20869;-67
2020/12/24 02:59:54;;;;;;;0.50;0.50;;;20.50;55.40;;;;;;5070855;28;20468;-67
2020/12/24 03:02:20;;;;;;;0.50;0.50;;;20.50;55.60;;;;;;5072917;28;20480;-68
2020/12/24 03:04:46;;;;;;;0.63;0.63;;;20.60;55.70;;;;;;5069480;28;20492;-67
2020/12/24 03:07:12;;;;;;;2.20;0.60;;;20.50;55.60;;;;;;5067968;28;20501;-66
2020/12/24 03:09:38;;;;;;;1.17;0.50;;;20.50;55.60;;;;;;5068111;28;21120;-67
2020/12/24 03:12:05;;;;;;;0.47;0.47;;;20.50;55.60;;;;;;5053049;28;20462;-67
2020/12/24 03:14:32;;;;;;;0.60;0.60;;;20.50;55.20;;;;;;5074859;28;20478;-67
2020/12/24 03:16:58;;;;;;;0.60;0.60;;;20.60;55.70;;;;;;5029476;28;20522;-68
2020/12/24 03:19:24;;;;;;;0.60;0.60;;;20.50;55.30;;;;;;5059959;28;20481;-67
2020/12/24 03:21:50;;;;;;;1.67;1.00;;;20.60;55.40;;;;;;5051131;28;20477;-68
2020/12/24 03:24:16;;;;;;;0.50;0.50;;;20.50;55.30;;;;;;5076214;28;20474;-66
2020/12/24 03:26:42;;;;;;;0.50;0.50;;;20.50;55.00;;;;;;5069692;28;20526;-67
2020/12/24 03:29:09;;;;;;;0.60;0.60;;;20.50;55.20;;;;;;5058292;28;21523;-67
2020/12/24 03:31:36;;;;;;;0.50;0.50;;;20.50;55.00;;;;;;5083689;28;20483;-67
2020/12/24 03:34:02;;;;;;;0.47;0.47;;;20.50;55.30;;;;;;5070070;28;20477;-67
2020/12/24 03:36:28;;;;;;;0.50;0.50;;;20.50;55.30;;;;;;5068854;28;20492;-68
2020/12/24 03:38:54;;;;;;;0.57;0.57;;;20.50;55.20;;;;;;5061233;28;21023;-68
2020/12/24 03:41:20;;;;;;;0.60;0.53;;;20.50;55.00;;;;;;5083622;28;20831;-67
2020/12/24 03:43:46;;;;;;;0.50;0.50;;;20.50;55.40;;;;;;5045047;28;20468;-67
2020/12/24 03:46:14;;;;;;;0.47;0.47;;;20.50;55.10;;;;;;5070230;28;20478;-68
2020/12/24 03:48:40;;;;;;;0.90;0.47;;;20.50;55.60;;;;;;5051746;28;20480;-67
2020/12/24 03:51:06;;;;;;;0.53;0.53;;;20.50;55.50;;;;;;5061798;28;20547;-67
2020/12/24 03:53:32;;;;;;;0.60;0.60;;;20.50;55.30;;;;;;5078053;28;20904;-67
2020/12/24 03:55:58;;;;;;;0.40;0.40;;;20.50;55.50;;;;;;5058771;28;21521;-68
2020/12/24 03:58:25;;;;;;;0.47;0.47;;;20.50;55.40;;;;;;5014315;28;20475;-68
2020/12/24 04:00:51;;;;;;;0.60;0.60;;;20.50;55.50;;;;;;5023273;28;20494;-68
2020/12/24 04:03:18;;;;;;;0.60;0.40;;;20.50;55.60;;;;;;4994308;28;20498;-67
2020/12/24 04:05:44;;;;;;;1.23;0.50;;;20.50;55.40;;;;;;5018601;28;20524;-68
2020/12/24 04:08:10;;;;;;;0.83;0.50;;;20.50;55.10;;;;;;5040515;28;20481;-68
2020/12/24 04:10:36;;;;;;;0.50;0.50;;;20.50;54.90;;;;;;5050747;28;20466;-68
2020/12/24 04:13:02;;;;;;;0.50;0.50;;;20.60;54.80;;;;;;5036423;28;20473;-67
2020/12/24 04:15:29;;;;;;;0.50;0.50;;;20.60;54.70;;;;;;5027950;28;20478;-68
2020/12/24 04:17:55;;;;;;;1.40;0.40;;;20.60;54.60;;;;;;5047559;28;20482;-67
2020/12/24 04:20:22;;;;;;;0.50;0.50;;;20.70;54.50;;;;;;5041999;28;20519;-67
2020/12/24 04:22:48;;;;;;;0.40;0.40;;;20.70;54.50;;;;;;5035671;28;20625;-67
2020/12/24 04:25:14;;;;;;;0.40;0.40;;;20.70;54.40;;;;;;5041422;28;20512;-67
2020/12/24 04:27:40;;;;;;;0.40;0.40;;;20.80;54.30;;;;;;5040501;28;20486;-67
2020/12/24 04:30:06;;;;;;;0.50;0.50;;;20.80;54.20;;;;;;5002586;28;20467;-67
2020/12/24 04:32:32;;;;;;;5.43;0.40;;;20.80;54.10;;;;;;5041046;28;20493;-68
2020/12/24 04:34:59;;;;;;;0.60;0.50;;;20.80;54.00;;;;;;5032549;28;20870;-67
2020/12/24 04:37:26;;;;;;;0.50;0.40;;;20.80;54.10;;;;;;5042798;28;20922;-67
2020/12/24 04:39:52;;;;;;;0.40;0.40;;;20.80;54.10;;;;;;5050973;28;20564;-67
2020/12/24 04:42:19;;;;;;;0.40;0.40;;;20.80;54.10;;;;;;5039334;28;20470;-67
2020/12/24 04:44:45;;;;;;;0.80;0.50;;;20.80;54.10;;;;;;5009794;28;20486;-67
2020/12/24 04:47:11;;;;;;;0.40;0.40;;;20.80;54.00;;;;;;5019893;28;20481;-67
2020/12/24 04:49:37;;;;;;;0.40;0.40;;;20.80;54.00;;;;;;5027968;28;20541;-67
2020/12/24 04:52:04;;;;;;;0.40;0.40;;;20.70;54.10;;;;;;5044625;28;20482;-67
2020/12/24 04:54:31;;;;;;;0.40;0.40;;;20.80;54.20;;;;;;5026487;28;20497;-67
2020/12/24 04:56:58;;;;;;;0.40;0.40;;;20.70;54.10;;;;;;5019931;28;20479;-67
2020/12/24 04:59:24;;;;;;;0.40;0.40;;;20.70;54.10;;;;;;5048247;28;20493;-68
2020/12/24 05:01:50;;;;;;;0.40;0.40;;;20.70;54.30;;;;;;5043236;28;20506;-66
2020/12/24 05:04:17;;;;;;;0.40;0.40;;;20.70;54.30;;;;;;5050744;28;20513;-67
2020/12/24 05:06:43;;;;;;;0.50;0.50;;;20.60;54.20;;;;;;5033180;28;20563;-67
2020/12/24 05:09:10;;;;;;;0.43;0.43;;;20.60;54.10;;;;;;5053320;28;20510;-66
2020/12/24 05:11:37;;;;;;;0.40;0.40;;;20.60;54.30;;;;;;5050607;28;20485;-68
2020/12/24 05:14:16;;;;;;;0.50;0.40;;;20.70;54.30;;;;;;5024917;28;20477;-68
2020/12/24 05:16:42;;;;;;;0.40;0.40;;;20.70;54.30;;;;;;5072628;28;20483;-67
2020/12/24 05:19:11;;;;;;;0.40;0.40;;;20.70;54.20;;;;;;5073304;28;20497;-68
2020/12/24 05:21:39;;;;;;;0.40;0.40;;;20.70;54.20;;;;;;5061121;28;20557;-67
2020/12/24 05:24:23;;;;;;;0.47;0.47;;;20.70;54.10;;;;;;5038765;28;20536;-67
2020/12/24 05:26:50;;;;;;;0.40;0.40;;;20.80;54.00;;;;;;5069595;28;20850;-67
2020/12/24 05:29:17;;;;;;;0.70;0.40;;;20.80;54.10;;;;;;5050651;28;20479;-67
2020/12/24 05:31:43;;;;;;;0.40;0.40;;;20.80;54.00;;;;;;5069919;28;20484;-67
2020/12/24 05:34:17;;;;;;;0.40;0.40;;;20.80;53.90;;;;;;5062479;28;20546;-67
2020/12/24 05:36:43;;;;;;;0.40;0.40;;;20.80;53.90;;;;;;5051064;28;20495;-67
2020/12/24 05:39:09;;;;;;;0.47;0.47;;;20.80;53.80;;;;;;5049926;28;20500;-67
2020/12/24 05:41:36;;;;;;;0.50;0.50;;;20.80;53.90;;;;;;5073512;28;20488;-67
2020/12/24 05:44:06;;;;;;;0.40;0.40;;;20.80;53.90;;;;;;5067040;28;20488;-67
2020/12/24 05:46:39;;;;;;;0.40;0.40;;;20.80;53.80;;;;;;5080043;28;20477;-68
2020/12/24 05:49:10;;;;;;;0.40;0.40;;;20.90;53.80;;;;;;5060180;28;20488;-67
2020/12/24 05:51:37;;;;;;;5.97;0.80;;;20.90;53.70;;;;;;5073356;28;21175;-66
2020/12/24 05:54:03;;;;;;;0.50;0.40;;;20.90;53.60;;;;;;5064627;28;20492;-67
2020/12/24 05:56:29;;;;;;;0.43;0.43;;;21.00;53.70;;;;;;5073511;28;20531;-67
2020/12/24 05:58:55;;;;;;;0.67;0.50;;;20.90;53.50;;;;;;5063279;28;20484;-66
2020/12/24 06:01:22;;;;;;;0.40;0.40;;;20.90;53.60;;;;;;5068950;28;20482;-67
2020/12/24 06:04:04;;;;;;;0.40;0.40;;;21.00;53.60;;;;;;5071476;28;20484;-67
2020/12/24 06:06:43;;;;;;;0.40;0.40;;;20.90;53.50;;;;;;5050917;28;21022;-66
2020/12/24 06:09:14;;;;;;;0.53;0.53;;;20.90;53.40;;;;;;5037655;28;20510;-68
2020/12/24 06:11:58;;;;;;;0.50;0.50;;;20.90;53.40;;;;;;5035304;28;20549;-68
2020/12/24 06:14:31;;;;;;;0.50;0.50;;;20.90;53.60;;;;;;5050206;28;21286;-67
2020/12/24 06:17:06;;;;;;;0.40;0.40;;;20.80;53.50;;;;;;5051818;28;20482;-67
2020/12/24 06:19:39;;;;;;;0.43;0.40;;;20.80;53.50;;;;;;5051078;28;20492;-67
2020/12/24 06:22:05;;;;;;;0.40;0.40;;;20.90;53.60;;;;;;5041585;28;20506;-68
2020/12/24 06:24:32;;;;;;;0.73;0.50;;;20.80;53.50;;;;;;5049171;28;20488;-67
2020/12/24 06:27:02;;;;;;;0.40;0.40;;;20.80;53.50;;;;;;5051443;28;20610;-67
2020/12/24 06:29:28;;;;;;;0.60;0.40;;;20.80;53.50;;;;;;5037376;28;20551;-67
2020/12/24 06:31:54;;;;;;;0.90;0.40;;;20.80;53.50;;;;;;5049199;28;20502;-67
2020/12/24 06:34:22;;;;;;;0.40;0.40;;;20.80;53.70;;;;;;5052678;28;20532;-67
2020/12/24 06:36:48;;;;;;;0.50;0.50;;;20.80;53.70;;;;;;5041609;28;20524;-67
2020/12/24 06:39:14;;;;;;;0.40;0.40;;;20.80;53.60;;;;;;5030852;28;20953;-68
2020/12/24 06:41:41;;;;;;;0.50;0.50;;;20.90;53.70;;;;;;5043181;28;20505;-67
2020/12/24 06:44:08;;;;;;;0.40;0.40;;;20.90;53.60;;;;;;5052195;28;20567;-67
2020/12/24 06:46:55;;;;;;;0.40;0.40;;;20.90;53.50;;;;;;5071255;28;20492;-67
2020/12/24 06:49:29;;;;;;;0.40;0.40;;;20.90;53.40;;;;;;5060765;28;20487;-67
2020/12/24 06:51:55;;;;;;;0.40;0.40;;;20.90;53.40;;;;;;5054010;28;20534;-67
2020/12/24 06:54:22;;;;;;;0.40;0.40;;;20.90;53.30;;;;;;5051887;28;20485;-67
2020/12/24 06:56:48;;;;;;;0.40;0.40;;;20.90;53.30;;;;;;5068833;28;20477;-67
2020/12/24 06:59:21;;;;;;;0.50;0.50;;;20.90;53.30;;;;;;5058212;28;20486;-68
2020/12/24 07:02:00;;;;;;;0.40;0.40;;;20.90;53.30;;;;;;5072090;28;21007;-68
2020/12/24 07:04:36;;;;;;;0.60;0.50;;;20.90;53.30;;;;;;5049215;28;20580;-67
2020/12/24 07:07:02;;;;;;;0.40;0.40;;;20.90;53.30;;;;;;5031921;28;20475;-67
2020/12/24 07:09:46;;;;;;;0.40;0.40;;;20.90;53.30;;;;;;5059702;28;21015;-68
2020/12/24 07:12:32;;;;;;;0.90;0.50;;;20.80;53.30;;;;;;5053794;28;20481;-68
2020/12/24 07:15:19;;;;;;;0.40;0.40;;;20.80;53.30;;;;;;5046953;28;20837;-67
2020/12/24 07:17:46;;;;;;;0.40;0.40;;;20.80;53.50;;;;;;5047563;28;20557;-67
2020/12/24 07:20:16;;;;;;;0.40;0.40;;;20.80;53.40;;;;;;5045601;28;20565;-66
2020/12/24 07:22:43;;;;;;;0.40;0.40;;;20.80;53.40;;;;;;5057860;28;20841;-66
2020/12/24 07:25:09;;;;;;;0.60;0.50;;;20.80;53.50;;;;;;5066865;28;20854;-68
2020/12/24 07:27:46;;;;;;;0.30;0.30;;;20.90;53.70;;;;;;5062844;28;21016;-67
2020/12/24 07:30:13;;;;;;;0.43;0.43;;;20.90;53.60;;;;;;5005406;28;20497;-68
2020/12/24 07:32:39;;;;;;;0.50;0.40;;;20.80;53.50;;;;;;5049818;28;20508;-67
2020/12/24 07:35:06;;;;;;;0.47;0.47;;;20.80;53.50;;;;;;5021160;28;20608;-68
2020/12/24 07:37:33;;;;;;;0.50;0.40;;;20.80;53.30;;;;;;5024279;28;20481;-67
2020/12/24 07:39:59;;;;;;;0.67;0.47;;;20.80;53.50;;;;;;5040058;28;20550;-67
2020/12/24 07:42:25;;;;;;;0.40;0.40;;;20.80;53.40;;;;;;5037718;28;20489;-67
2020/12/24 07:44:51;;;;;;;0.40;0.40;;;20.80;53.50;;;;;;5038297;28;20970;-67
2020/12/24 07:47:17;;;;;;;0.43;0.40;;;20.80;53.40;;;;;;5054034;28;21019;-67
2020/12/24 07:49:49;;;;;;;1.57;0.50;;;20.80;53.50;;;;;;5043381;28;20505;-67
2020/12/24 07:52:15;;;;;;;0.40;0.40;;;20.80;53.70;;;;;;5027083;28;20494;-68
2020/12/24 07:54:42;;;;;;;0.40;0.40;;;20.80;53.50;;;;;;5032356;28;20480;-67
2020/12/24 07:57:08;;;;;;;0.50;0.50;;;20.80;53.60;;;;;;5040418;28;20877;-67
2020/12/24 07:59:34;;;;;;;0.40;0.40;;;20.80;53.70;;;;;;5055093;28;20469;-66
2020/12/24 08:02:03;;;;;;;0.50;0.47;;;20.80;53.50;;;;;;5054058;28;20516;-66
2020/12/24 08:04:29;;;;;;;0.50;0.50;;;20.80;53.70;;;;;;5054130;28;21986;-66
2020/12/24 08:06:55;;;;;;;0.40;0.40;;;20.80;53.50;;;;;;5034885;28;20481;-67
2020/12/24 08:09:21;;;;;;;0.60;0.40;;;20.80;53.40;;;;;;5054905;28;20493;-66
2020/12/24 08:11:53;;;;;;;0.40;0.40;;;20.80;53.40;;;;;;5035653;28;20498;-66
2020/12/24 08:14:21;;;;;;;0.40;0.40;;;20.80;53.50;;;;;;5041637;28;20572;-67
2020/12/24 08:16:47;;;;;;;0.50;0.50;;;20.80;53.70;;;;;;5033409;28;20470;-67
2020/12/24 08:19:14;;;;;;;0.40;0.40;;;20.70;53.60;;;;;;5036933;28;21261;-67
2020/12/24 08:21:46;;;;;;;0.90;0.50;;;20.70;53.50;;;;;;5058300;28;20539;-67
2020/12/24 08:24:12;;;;;;;0.40;0.40;;;20.70;53.60;;;;;;5044428;28;20993;-67
2020/12/24 08:26:38;;;;;;;0.40;0.40;;;20.70;53.70;;;;;;5054448;28;20485;-67
2020/12/24 08:29:07;;;;;;;0.50;0.50;;;20.70;53.70;;;;;;5049589;28;20552;-67
2020/12/24 08:31:36;;;;;;;0.40;0.40;;;20.70;54.50;;;;;;5029205;28;20496;-67
2020/12/24 08:34:02;;;;;;;0.83;0.50;;;20.70;54.60;;;;;;5041308;28;20499;-67
2020/12/24 08:36:29;;;;;;;0.50;0.50;;;20.70;53.80;;;;;;5045252;28;21066;-68
2020/12/24 08:39:04;;;;;;;0.90;0.40;;;20.70;53.80;;;;;;5055052;28;20477;-68
2020/12/24 08:41:30;;;;;;;0.50;0.50;;;20.70;53.90;;;;;;5032438;28;20489;-68
2020/12/24 08:43:56;;;;;;;0.87;0.40;;;20.70;53.90;;;;;;5030443;28;20503;-69
2020/12/24 08:46:23;;;;;;;1.00;0.40;;;20.60;53.80;;;;;;5045188;28;20486;-68
2020/12/24 08:48:49;;;;;;;0.40;0.40;;;20.60;53.90;;;;;;5024793;28;20499;-68
2020/12/24 08:51:16;;;;;;;0.70;0.40;;;20.60;54.00;;;;;;5033693;28;20637;-68
2020/12/24 08:53:42;;;;;;;0.70;0.50;;;20.50;53.90;;;;;;5049544;28;20474;-68
2020/12/24 08:56:13;;;;;;;0.40;0.40;;;20.50;54.00;;;;;;5033529;28;20487;-68
2020/12/24 08:58:49;;;;;;;0.50;0.50;;;20.50;54.00;;;;;;5036244;28;20500;-67
2020/12/24 09:01:15;;;;;;;0.40;0.40;;;20.50;54.00;;;;;;5003410;28;20485;-68
2020/12/24 09:03:43;;;;;;;0.90;0.40;;;20.50;54.10;;;;;;5039742;28;20536;-68
2020/12/24 09:06:10;;;;;;;0.50;0.50;;;20.40;54.00;;;;;;5060322;28;20474;-68
2020/12/24 09:08:36;;;;;;;0.60;0.40;;;20.40;54.00;;;;;;5060937;28;20532;-68
2020/12/24 09:11:02;;;;;;;0.40;0.40;;;20.40;53.90;;;;;;5044941;28;20481;-67
2020/12/24 09:13:28;;;;;;;0.50;0.50;;;20.40;53.90;;;;;;5029150;28;20509;-67
2020/12/24 09:15:54;;;;;;;0.87;0.57;;;20.50;54.00;;;;;;5038688;28;20481;-68
2020/12/24 09:18:21;;;;;;;0.50;0.50;;;20.40;54.00;;;;;;5019912;28;20540;-68
2020/12/24 09:20:48;;;;;;;1.43;0.57;;;20.40;54.10;;;;;;5040636;28;21063;-68
2020/12/24 09:23:14;;;;;;;0.60;0.60;;;20.30;54.20;;;;;;5022325;28;20496;-68
2020/12/24 09:25:41;;;;;;;0.53;0.53;;;20.40;54.30;;;;;;5022761;28;20466;-68
2020/12/24 09:28:18;;;;;;;0.77;0.50;;;20.40;54.40;;;;;;5037607;28;20529;-68
2020/12/24 09:30:44;;;;;;;0.40;0.40;;;20.30;54.40;;;;;;5055313;28;20483;-68
2020/12/24 09:33:11;;;;;;;0.40;0.40;;;20.40;54.50;;;;;;5082962;28;20478;-68
2020/12/24 09:35:37;;;;;;;0.50;0.50;;;20.40;54.20;;;;;;5074081;28;20469;-68
2020/12/24 09:38:04;;;;;;;0.60;0.60;;;20.30;54.20;;;;;;5066769;28;21510;-68
2020/12/24 09:40:30;;;;;;;0.50;0.50;;;20.30;54.40;;;;;;5075148;28;21231;-68
2020/12/24 09:42:56;;;;;;;0.60;0.60;;;20.30;54.50;;;;;;5071819;28;21140;-69
2020/12/24 09:45:23;;;;;;;0.50;0.50;;;20.30;54.50;;;;;;5042885;28;20639;-68
2020/12/24 09:47:49;;;;;;;0.40;0.40;;;20.30;54.70;;;;;;5053804;28;20496;-68
2020/12/24 09:50:16;;;;;;;0.50;0.50;;;20.30;54.90;;;;;;5071054;28;20481;-68
2020/12/24 09:52:42;;;;;;;0.50;0.50;;;20.30;54.60;;;;;;5074687;28;20475;-67
2020/12/24 09:55:09;;;;;;;0.60;0.60;;;20.30;54.60;;;;;;5075450;28;20516;-68
2020/12/24 09:57:35;;;;;;;0.50;0.50;;;20.30;54.70;;;;;;5073563;28;20476;-67
2020/12/24 10:00:01;;;;;;;0.70;0.70;;;20.30;54.60;;;;;;5071778;28;20481;-68
2020/12/24 10:02:28;;;;;;;0.70;0.70;;;20.30;54.60;;;;;;5073252;28;20986;-67
2020/12/24 10:04:54;;;;;;;0.50;0.50;;;20.40;54.70;;;;;;5070813;28;20477;-67
2020/12/24 10:07:22;;;;;;;0.50;0.50;;;20.40;54.60;;;;;;5072386;28;20489;-67
2020/12/24 10:09:48;;;;;;;0.50;0.50;;;20.50;54.50;;;;;;5075241;28;20481;-67
2020/12/24 10:12:17;;;;;;;0.40;0.40;;;20.50;54.30;;;;;;5047079;28;20866;-67
2020/12/24 10:14:44;;;;;;;2.80;0.60;;;20.50;54.50;;;;;;5072021;28;20473;-67
2020/12/24 10:17:10;;;;;;;0.70;0.70;;;20.40;54.40;;;;;;5072945;28;20478;-67
2020/12/24 10:19:36;;;;;;;0.63;0.63;;;20.30;54.40;;;;;;5059369;28;20500;-67
2020/12/24 10:22:02;;;;;;;0.50;0.50;;;20.30;54.60;;;;;;5067645;28;20534;-66
2020/12/24 10:24:28;;;;;;;0.60;0.60;;;20.30;54.70;;;;;;5072407;28;20480;-67
2020/12/24 10:26:55;;;;;;;0.47;0.47;;;20.30;54.80;;;;;;5075061;28;20492;-67
2020/12/24 10:29:22;;;;;;;0.60;0.60;;;20.20;54.80;;;;;;5071145;28;20544;-66
2020/12/24 10:31:48;;;;;;;0.60;0.60;;;20.20;54.90;;;;;;5074477;28;20477;-67
2020/12/24 10:34:14;;;;;;;0.70;0.70;;;20.20;54.60;;;;;;5056674;28;20529;-67
2020/12/24 10:36:40;;;;;;;0.93;0.93;;;20.20;54.60;;;;;;5060154;28;21004;-67
2020/12/24 10:39:09;;;;;;;0.60;0.60;;;20.30;54.50;;;;;;5071192;28;20497;-68
2020/12/24 10:41:35;;;;;;;0.53;0.53;;;20.30;54.70;;;;;;5076805;28;21184;-67
2020/12/24 10:44:01;;;;;;;0.60;0.60;;;20.30;54.60;;;;;;5072689;28;20993;-68
2020/12/24 10:46:28;;;;;;;1.03;0.93;;;20.20;54.70;;;;;;5071708;28;20491;-67
2020/12/24 10:48:54;;;;;;;0.97;0.97;;;20.30;54.60;;;;;;5058555;28;20514;-67
2020/12/24 10:51:22;;;;;;;0.70;0.70;;;20.30;54.70;;;;;;5079257;28;21490;-67
2020/12/24 10:53:48;;;;;;;1.17;0.80;;;20.30;54.70;;;;;;5052218;28;20475;-66
2020/12/24 10:56:14;;;;;;;0.90;0.90;;;20.30;54.80;;;;;;5061529;28;21105;-66
2020/12/24 10:58:41;;;;;;;0.70;0.70;;;20.30;54.70;;;;;;5071439;28;20477;-68
2020/12/24 11:01:09;;;;;;;0.80;0.80;;;20.20;54.80;;;;;;5075186;28;20488;-67
2020/12/24 11:03:37;;;;;;;1.10;1.10;;;20.30;55.40;;;;;;5061547;28;20564;-67
2020/12/24 11:06:04;;;;;;;1.13;0.93;;;20.20;55.20;;;;;;5065872;28;20559;-67
2020/12/24 11:08:30;;;;;;;1.50;1.00;;;20.20;55.30;;;;;;5078723;28;20482;-67
2020/12/24 11:10:56;;;;;;;1.70;1.40;;;20.20;55.10;;;;;;5068925;28;20468;-67
2020/12/24 11:13:23;;;;;;;1.40;1.20;;;20.20;55.00;;;;;;5051688;28;20482;-67
2020/12/24 11:15:49;;;;;;;2.20;1.03;;;20.20;54.80;;;;;;5051056;28;20531;-67
2020/12/24 11:18:15;;;;;;;1.53;1.27;;;20.20;54.70;;;;;;5052079;28;21032;-67
2020/12/24 11:20:42;;;;;;;1.50;1.40;;;20.20;54.60;;;;;;5052521;28;20850;-67
2020/12/24 11:23:08;;;;;;;1.40;1.30;;;20.30;54.50;;;;;;5047327;28;20484;-68
2020/12/24 11:25:35;;;;;;;1.37;1.27;;;20.20;54.60;;;;;;5051169;28;20474;-67
2020/12/24 11:28:01;;;;;;;1.93;1.70;;;20.20;54.60;;;;;;5023015;28;20597;-67
2020/12/24 11:30:27;;;;;;;1.90;1.80;;;20.20;54.70;;;;;;5034209;28;21248;-68
2020/12/24 11:32:53;;;;;;;2.10;2.00;;;20.10;54.70;;;;;;5041218;28;20481;-68
2020/12/24 11:35:20;;;;;;;3.10;2.23;;;20.20;54.60;;;;;;5017139;28;20490;-67
2020/12/24 11:37:47;;;;;;;1.70;1.60;;;20.20;54.40;;;;;;5053294;28;20493;-67
2020/12/24 11:40:13;;;;;;;3.17;1.90;;;20.20;54.50;;;;;;5038576;28;20934;-67
2020/12/24 11:42:39;;;;;;;1.90;1.80;;;20.20;54.30;;;;;;5032546;28;20494;-67
2020/12/24 11:45:05;;;;;;;1.77;1.67;;;20.30;54.30;;;;;;5026178;28;20563;-67
2020/12/24 11:47:33;;;;;;;2.40;2.30;;;20.30;54.40;;;;;;5025413;28;20483;-68
2020/12/24 11:50:00;;;;;;;2.63;2.43;;;20.30;54.30;;;;;;5009027;28;20491;-67
2020/12/24 11:52:26;;;;;;;1.83;1.73;;;20.30;54.50;;;;;;5043397;28;20494;-67
2020/12/24 11:54:53;;;;;;;1.80;1.70;;;20.20;54.60;;;;;;5053536;28;20541;-66
2020/12/24 11:57:19;;;;;;;1.50;1.40;;;20.20;54.80;;;;;;5053719;28;20481;-66
2020/12/24 11:59:45;;;;;;;4.40;2.97;;;20.30;54.80;;;;;;5068253;28;21640;-67
2020/12/24 12:02:12;;;;;;;2.20;1.60;;;20.30;54.70;;;;;;5070356;28;20904;-67
2020/12/24 12:04:38;;;;;;;2.33;1.70;;;20.30;54.70;;;;;;5042761;28;21688;-67
2020/12/24 12:07:04;;;;;;;1.13;1.13;;;20.30;54.60;;;;;;5054024;28;20486;-67
2020/12/24 12:09:30;;;;;;;1.83;1.53;;;20.30;54.40;;;;;;5070347;28;20858;-67
2020/12/24 12:11:57;;;;;;;2.30;1.80;;;20.30;54.50;;;;;;5063401;28;20495;-67
2020/12/24 12:14:23;;;;;;;3.60;1.80;;;20.30;54.40;;;;;;5086041;28;20484;-67
2020/12/24 12:16:49;;;;;;;2.47;1.50;;;20.30;54.50;;;;;;5048480;28;20501;-67
2020/12/24 12:19:15;;;;;;;3.87;2.10;;;20.20;54.50;;;;;;5048346;28;20494;-67
2020/12/24 12:21:42;;;;;;;1.63;1.53;;;20.20;54.60;;;;;;5069639;28;20536;-68
2020/12/24 12:24:08;;;;;;;1.70;1.60;;;20.30;54.60;;;;;;5055974;28;20492;-67
2020/12/24 12:26:34;;;;;;;1.93;1.83;;;20.30;54.40;;;;;;5069362;28;20480;-67
2020/12/24 12:29:01;;;;;;;1.13;1.13;;;20.20;54.40;;;;;;5072695;28;21064;-68
2020/12/24 12:31:27;;;;;;;1.63;1.53;;;20.30;54.30;;;;;;5043850;28;20501;-67
2020/12/24 12:33:53;;;;;;;1.57;1.47;;;20.30;54.40;;;;;;5086701;28;20468;-68
2020/12/24 12:36:21;;;;;;;1.97;1.70;;;20.20;54.50;;;;;;5049199;28;20855;-67
2020/12/24 12:38:48;;;;;;;1.63;1.50;;;20.20;54.70;;;;;;5041122;28;21028;-67
2020/12/24 12:41:14;;;;;;;2.40;1.70;;;20.20;54.80;;;;;;5050528;28;20565;-66
2020/12/24 12:43:40;;;;;;;1.47;1.37;;;20.20;54.70;;;;;;5041579;28;21438;-66
2020/12/24 12:46:07;;;;;;;1.00;1.00;;;20.20;54.90;;;;;;5043721;28;20483;-67
2020/12/24 12:48:33;;;;;;;1.40;1.30;;;20.30;54.70;;;;;;5043107;28;20478;-66